sensor_id;sensor_type;location;lat;lon;timestamp;pressure;altitude;pressure_sealevel;temperature;humidity
74893;BME280;63446;56.272;43.922;2023-02-28T00:01:09;100768.88;;;-2.08;61.21
74893;BME280;63446;56.272;43.922;2023-02-28T00:03:35;100759.03;;;-2.27;61.08
74893;BME280;63446;56.272;43.922;2023-02-28T00:06:02;100766.78;;;-2.42;61.22
74893;BME280;63446;56.272;43.922;2023-02-28T00:08:28;100761.53;;;-2.57;61.30
74893;BME280;63446;56.272;43.922;2023-02-28T00:10:54;100762.28;;;-2.71;61.39
74893;BME280;63446;56.272;43.922;2023-02-28T00:13:20;100747.13;;;-2.82;61.53
74893;BME280;63446;56.272;43.922;2023-02-28T00:15:45;100759.66;;;-2.94;61.40
74893;BME280;63446;56.272;43.922;2023-02-28T00:18:11;100756.66;;;-3.06;61.60
74893;BME280;63446;56.272;43.922;2023-02-28T00:20:37;100760.88;;;-3.13;61.64
74893;BME280;63446;56.272;43.922;2023-02-28T00:23:03;100757.22;;;-3.18;61.77
74893;BME280;63446;56.272;43.922;2023-02-28T00:25:29;100754.63;;;-3.18;61.58
74893;BME280;63446;56.272;43.922;2023-02-28T00:27:55;100752.66;;;-3.16;61.74
74893;BME280;63446;56.272;43.922;2023-02-28T00:30:22;100754.91;;;-3.13;61.70
74893;BME280;63446;56.272;43.922;2023-02-28T00:32:49;100748.44;;;-3.09;61.69
74893;BME280;63446;56.272;43.922;2023-02-28T00:35:16;100735.03;;;-3.13;61.69
74893;BME280;63446;56.272;43.922;2023-02-28T00:37:42;100734.75;;;-3.18;61.68
74893;BME280;63446;56.272;43.922;2023-02-28T00:40:10;100728.81;;;-3.27;61.75
74893;BME280;63446;56.272;43.922;2023-02-28T00:42:38;100718.66;;;-3.36;61.79
74893;BME280;63446;56.272;43.922;2023-02-28T00:45:05;100714.16;;;-3.42;61.76
74893;BME280;63446;56.272;43.922;2023-02-28T00:47:31;100712.41;;;-3.50;61.90
74893;BME280;63446;56.272;43.922;2023-02-28T00:49:57;100714.22;;;-3.59;61.99
74893;BME280;63446;56.272;43.922;2023-02-28T00:52:23;100709.75;;;-3.65;62.10
74893;BME280;63446;56.272;43.922;2023-02-28T00:54:49;100704.13;;;-3.69;62.38
74893;BME280;63446;56.272;43.922;2023-02-28T00:57:15;100694.44;;;-3.75;62.44
74893;BME280;63446;56.272;43.922;2023-02-28T00:59:41;100699.94;;;-3.78;62.46
74893;BME280;63446;56.272;43.922;2023-02-28T01:02:07;100690.28;;;-3.84;62.63
74893;BME280;63446;56.272;43.922;2023-02-28T01:04:36;100695.59;;;-3.85;62.63
74893;BME280;63446;56.272;43.922;2023-02-28T01:07:02;100688.03;;;-3.87;62.80
74893;BME280;63446;56.272;43.922;2023-02-28T01:09:28;100678.19;;;-3.91;62.68
74893;BME280;63446;56.272;43.922;2023-02-28T01:11:54;100684.16;;;-3.91;62.78
74893;BME280;63446;56.272;43.922;2023-02-28T01:14:20;100673.38;;;-3.95;62.98
74893;BME280;63446;56.272;43.922;2023-02-28T01:16:46;100666.75;;;-3.97;62.94
74893;BME280;63446;56.272;43.922;2023-02-28T01:19:11;100656.59;;;-3.99;62.88
74893;BME280;63446;56.272;43.922;2023-02-28T01:21:38;100645.78;;;-4.02;63.01
74893;BME280;63446;56.272;43.922;2023-02-28T01:24:06;100650.47;;;-4.06;63.09
74893;BME280;63446;56.272;43.922;2023-02-28T01:26:34;100645.66;;;-4.09;63.08
74893;BME280;63446;56.272;43.922;2023-02-28T01:29:00;100657.91;;;-4.11;63.15
74893;BME280;63446;56.272;43.922;2023-02-28T01:31:26;100654.88;;;-4.14;63.11
74893;BME280;63446;56.272;43.922;2023-02-28T01:33:52;100648.56;;;-4.20;63.23
74893;BME280;63446;56.272;43.922;2023-02-28T01:36:21;100642.31;;;-4.26;63.39
74893;BME280;63446;56.272;43.922;2023-02-28T01:38:48;100646.66;;;-4.26;63.35
74893;BME280;63446;56.272;43.922;2023-02-28T01:41:23;100653.13;;;-4.30;63.37
74893;BME280;63446;56.272;43.922;2023-02-28T01:46:16;100650.06;;;-4.34;63.49
74893;BME280;63446;56.272;43.922;2023-02-28T01:48:47;100650.22;;;-4.35;63.66
74893;BME280;63446;56.272;43.922;2023-02-28T01:51:48;100654.75;;;-4.37;63.50
74893;BME280;63446;56.272;43.922;2023-02-28T01:54:19;100647.34;;;-4.40;63.57
74893;BME280;63446;56.272;43.922;2023-02-28T01:56:51;100649.25;;;-4.43;63.72
74893;BME280;63446;56.272;43.922;2023-02-28T01:59:47;100634.94;;;-4.45;63.76
74893;BME280;63446;56.272;43.922;2023-02-28T02:02:15;100633.47;;;-4.48;63.84
74893;BME280;63446;56.272;43.922;2023-02-28T02:05:09;100636.38;;;-4.51;63.81
74893;BME280;63446;56.272;43.922;2023-02-28T02:07:40;100627.19;;;-4.53;63.77
74893;BME280;63446;56.272;43.922;2023-02-28T02:13:00;100605.28;;;-4.57;63.99
74893;BME280;63446;56.272;43.922;2023-02-28T02:18:50;100598.81;;;-4.61;63.87
74893;BME280;63446;56.272;43.922;2023-02-28T02:27:07;100586.41;;;-4.66;64.21
74893;BME280;63446;56.272;43.922;2023-02-28T02:38:11;100567.41;;;-4.73;64.23
74893;BME280;63446;56.272;43.922;2023-02-28T02:41:32;100559.66;;;-4.73;64.40
74893;BME280;63446;56.272;43.922;2023-02-28T02:46:37;100557.28;;;-4.75;64.53
74893;BME280;63446;56.272;43.922;2023-02-28T02:49:09;100544.56;;;-4.76;64.53
74893;BME280;63446;56.272;43.922;2023-02-28T02:51:37;100539.41;;;-4.76;64.37
74893;BME280;63446;56.272;43.922;2023-02-28T02:54:27;100542.59;;;-4.74;64.56
74893;BME280;63446;56.272;43.922;2023-02-28T02:56:57;100521.97;;;-4.74;64.52
74893;BME280;63446;56.272;43.922;2023-02-28T02:59:26;100529.72;;;-4.74;64.40
74893;BME280;63446;56.272;43.922;2023-02-28T03:02:07;100527.31;;;-4.76;64.53
74893;BME280;63446;56.272;43.922;2023-02-28T03:04:42;100510.84;;;-4.75;64.69
74893;BME280;63446;56.272;43.922;2023-02-28T03:07:09;100499.88;;;-4.77;64.60
74893;BME280;63446;56.272;43.922;2023-02-28T03:09:36;100500.72;;;-4.76;64.51
74893;BME280;63446;56.272;43.922;2023-02-28T03:12:09;100488.63;;;-4.76;64.54
74893;BME280;63446;56.272;43.922;2023-02-28T03:17:34;100461.22;;;-4.77;64.68
74893;BME280;63446;56.272;43.922;2023-02-28T03:22:45;100437.72;;;-4.82;64.52
74893;BME280;63446;56.272;43.922;2023-02-28T03:31:34;100409.50;;;-4.75;64.52
74893;BME280;63446;56.272;43.922;2023-02-28T03:34:17;100398.38;;;-4.76;64.56
74893;BME280;63446;56.272;43.922;2023-02-28T03:36:48;100395.81;;;-4.76;64.57
74893;BME280;63446;56.272;43.922;2023-02-28T03:39:30;100398.38;;;-4.76;64.51
74893;BME280;63446;56.272;43.922;2023-02-28T03:42:03;100398.06;;;-4.73;64.53
74893;BME280;63446;56.272;43.922;2023-02-28T03:44:46;100404.81;;;-4.72;64.42
74893;BME280;63446;56.272;43.922;2023-02-28T03:47:29;100395.13;;;-4.70;64.47
74893;BME280;63446;56.272;43.922;2023-02-28T03:50:13;100385.28;;;-4.66;64.51
74893;BME280;63446;56.272;43.922;2023-02-28T03:53:14;100377.53;;;-4.66;64.66
74893;BME280;63446;56.272;43.922;2023-02-28T03:55:45;100376.59;;;-4.65;64.57
74893;BME280;63446;56.272;43.922;2023-02-28T04:01:19;100357.38;;;-4.62;64.39
74893;BME280;63446;56.272;43.922;2023-02-28T04:03:47;100362.19;;;-4.59;64.58
74893;BME280;63446;56.272;43.922;2023-02-28T04:06:17;100353.81;;;-4.53;64.53
74893;BME280;63446;56.272;43.922;2023-02-28T04:08:44;100343.91;;;-4.50;64.49
74893;BME280;63446;56.272;43.922;2023-02-28T04:13:55;100319.56;;;-4.24;64.30
74893;BME280;63446;56.272;43.922;2023-02-28T04:16:21;100319.63;;;-4.09;64.21
74893;BME280;63446;56.272;43.922;2023-02-28T04:18:47;100305.59;;;-3.92;64.01
74893;BME280;63446;56.272;43.922;2023-02-28T04:21:13;100309.28;;;-3.72;63.89
74893;BME280;63446;56.272;43.922;2023-02-28T04:23:39;100310.34;;;-3.51;63.70
74893;BME280;63446;56.272;43.922;2023-02-28T04:26:05;100293.41;;;-3.24;63.45
74893;BME280;63446;56.272;43.922;2023-02-28T04:28:32;100290.06;;;-2.88;62.86
74893;BME280;63446;56.272;43.922;2023-02-28T04:31:01;100265.28;;;-2.40;62.73
74893;BME280;63446;56.272;43.922;2023-02-28T04:33:28;100239.81;;;-1.80;62.21
74893;BME280;63446;56.272;43.922;2023-02-28T04:36:06;100248.81;;;-0.67;61.69
74893;BME280;63446;56.272;43.922;2023-02-28T04:38:36;100252.78;;;0.35;60.26
74893;BME280;63446;56.272;43.922;2023-02-28T04:41:04;100250.72;;;1.34;58.76
74893;BME280;63446;56.272;43.922;2023-02-28T04:43:31;100239.81;;;2.37;57.05
74893;BME280;63446;56.272;43.922;2023-02-28T04:46:00;100239.13;;;3.27;55.55
74893;BME280;63446;56.272;43.922;2023-02-28T04:48:31;100231.56;;;4.07;54.16
74893;BME280;63446;56.272;43.922;2023-02-28T04:51:04;100232.63;;;4.58;53.34
74893;BME280;63446;56.272;43.922;2023-02-28T04:53:33;100233.25;;;5.06;52.44
74893;BME280;63446;56.272;43.922;2023-02-28T04:55:59;100228.22;;;5.67;51.46
74893;BME280;63446;56.272;43.922;2023-02-28T04:58:25;100219.25;;;6.35;50.24
74893;BME280;63446;56.272;43.922;2023-02-28T05:00:54;100222.19;;;7.15;48.98
74893;BME280;63446;56.272;43.922;2023-02-28T05:03:27;100215.03;;;8.12;48.02
74893;BME280;63446;56.272;43.922;2023-02-28T05:05:54;100223.53;;;9.12;46.59
74893;BME280;63446;56.272;43.922;2023-02-28T05:08:20;100222.50;;;9.69;45.72
74893;BME280;63446;56.272;43.922;2023-02-28T05:10:45;100234.50;;;10.37;44.51
74893;BME280;63446;56.272;43.922;2023-02-28T05:13:12;100241.47;;;10.77;43.72
74893;BME280;63446;56.272;43.922;2023-02-28T05:15:38;100231.00;;;11.01;43.05
74893;BME280;63446;56.272;43.922;2023-02-28T05:18:04;100222.66;;;10.84;42.18
74893;BME280;63446;56.272;43.922;2023-02-28T05:20:30;100211.84;;;10.15;42.21
74893;BME280;63446;56.272;43.922;2023-02-28T05:22:58;100219.84;;;9.34;42.42
74893;BME280;63446;56.272;43.922;2023-02-28T05:25:24;100211.22;;;8.45;43.05
74893;BME280;63446;56.272;43.922;2023-02-28T05:27:50;100193.97;;;7.69;43.72
74893;BME280;63446;56.272;43.922;2023-02-28T05:30:17;100177.91;;;6.96;44.10
74893;BME280;63446;56.272;43.922;2023-02-28T05:32:43;100182.50;;;6.35;44.62
74893;BME280;63446;56.272;43.922;2023-02-28T05:35:10;100171.31;;;5.84;45.16
74893;BME280;63446;56.272;43.922;2023-02-28T05:37:37;100160.09;;;5.50;45.39
74893;BME280;63446;56.272;43.922;2023-02-28T05:40:06;100157.25;;;5.34;45.51
74893;BME280;63446;56.272;43.922;2023-02-28T05:42:36;100133.16;;;5.21;45.64
74893;BME280;63446;56.272;43.922;2023-02-28T05:45:04;100135.63;;;5.27;45.47
74893;BME280;63446;56.272;43.922;2023-02-28T05:47:30;100123.19;;;5.34;45.33
74893;BME280;63446;56.272;43.922;2023-02-28T05:49:56;100107.34;;;5.29;45.27
74893;BME280;63446;56.272;43.922;2023-02-28T05:52:22;100102.53;;;5.21;45.30
74893;BME280;63446;56.272;43.922;2023-02-28T05:54:48;100085.94;;;4.99;45.15
74893;BME280;63446;56.272;43.922;2023-02-28T05:57:15;100090.13;;;4.83;45.23
74893;BME280;63446;56.272;43.922;2023-02-28T05:59:41;100092.09;;;4.59;45.43
74893;BME280;63446;56.272;43.922;2023-02-28T06:02:16;100078.53;;;4.33;45.52
74893;BME280;63446;56.272;43.922;2023-02-28T06:04:43;100065.56;;;4.10;46.00
74893;BME280;63446;56.272;43.922;2023-02-28T06:07:10;100062.22;;;3.86;46.18
74893;BME280;63446;56.272;43.922;2023-02-28T06:09:36;100039.56;;;3.63;46.39
74893;BME280;63446;56.272;43.922;2023-02-28T06:12:04;100037.53;;;3.41;46.40
74893;BME280;63446;56.272;43.922;2023-02-28T06:14:32;100038.47;;;3.24;46.68
74893;BME280;63446;56.272;43.922;2023-02-28T06:16:59;100029.25;;;3.09;46.78
74893;BME280;63446;56.272;43.922;2023-02-28T06:19:26;100018.22;;;2.96;47.07
74893;BME280;63446;56.272;43.922;2023-02-28T06:21:53;100024.25;;;2.84;46.96
74893;BME280;63446;56.272;43.922;2023-02-28T06:24:21;100002.00;;;2.70;47.13
74893;BME280;63446;56.272;43.922;2023-02-28T06:26:49;100004.03;;;2.68;47.30
74893;BME280;63446;56.272;43.922;2023-02-28T06:29:15;99989.06;;;2.63;47.44
74893;BME280;63446;56.272;43.922;2023-02-28T06:31:45;99971.81;;;2.62;47.42
74893;BME280;63446;56.272;43.922;2023-02-28T06:34:13;99957.19;;;2.61;47.37
74893;BME280;63446;56.272;43.922;2023-02-28T06:36:40;99960.47;;;2.68;47.35
74893;BME280;63446;56.272;43.922;2023-02-28T06:39:08;99943.34;;;2.73;47.25
74893;BME280;63446;56.272;43.922;2023-02-28T06:41:35;99941.84;;;2.77;47.18
74893;BME280;63446;56.272;43.922;2023-02-28T06:44:09;99936.66;;;2.88;47.28
74893;BME280;63446;56.272;43.922;2023-02-28T06:46:42;99916.44;;;2.96;47.29
74893;BME280;63446;56.272;43.922;2023-02-28T06:49:08;99915.28;;;3.03;47.26
74893;BME280;63446;56.272;43.922;2023-02-28T06:51:36;99901.00;;;3.06;47.09
74893;BME280;63446;56.272;43.922;2023-02-28T06:54:03;99890.44;;;3.12;47.25
74893;BME280;63446;56.272;43.922;2023-02-28T06:56:29;99893.00;;;3.24;47.23
74893;BME280;63446;56.272;43.922;2023-02-28T06:58:55;99878.56;;;3.33;47.08
74893;BME280;63446;56.272;43.922;2023-02-28T07:01:22;99877.06;;;3.37;47.20
74893;BME280;63446;56.272;43.922;2023-02-28T07:03:49;99887.63;;;3.42;47.19
74893;BME280;63446;56.272;43.922;2023-02-28T07:06:19;99864.56;;;3.39;47.17
74893;BME280;63446;56.272;43.922;2023-02-28T07:08:46;99867.66;;;3.36;47.21
74893;BME280;63446;56.272;43.922;2023-02-28T07:11:13;99843.25;;;3.31;47.33
74893;BME280;63446;56.272;43.922;2023-02-28T07:13:39;99844.59;;;3.33;47.35
74893;BME280;63446;56.272;43.922;2023-02-28T07:16:07;99852.06;;;3.41;47.37
74893;BME280;63446;56.272;43.922;2023-02-28T07:18:35;99826.97;;;3.40;47.28
74893;BME280;63446;56.272;43.922;2023-02-28T07:21:02;99821.50;;;3.42;47.29
74893;BME280;63446;56.272;43.922;2023-02-28T07:23:28;99808.22;;;3.43;47.18
74893;BME280;63446;56.272;43.922;2023-02-28T07:25:55;99818.22;;;3.47;47.32
74893;BME280;63446;56.272;43.922;2023-02-28T07:28:21;99806.81;;;3.53;47.28
74893;BME280;63446;56.272;43.922;2023-02-28T07:30:47;99802.03;;;3.50;47.31
74893;BME280;63446;56.272;43.922;2023-02-28T07:33:13;99808.97;;;3.73;47.26
74893;BME280;63446;56.272;43.922;2023-02-28T07:35:40;99801.22;;;3.95;47.07
74893;BME280;63446;56.272;43.922;2023-02-28T07:38:08;99795.75;;;4.13;46.85
74893;BME280;63446;56.272;43.922;2023-02-28T07:40:35;99795.91;;;4.23;46.54
74893;BME280;63446;56.272;43.922;2023-02-28T07:43:01;99770.84;;;4.27;46.30
74893;BME280;63446;56.272;43.922;2023-02-28T07:45:27;99762.25;;;4.32;46.17
74893;BME280;63446;56.272;43.922;2023-02-28T07:47:55;99764.25;;;4.25;46.35
74893;BME280;63446;56.272;43.922;2023-02-28T07:50:22;99758.47;;;4.23;46.40
74893;BME280;63446;56.272;43.922;2023-02-28T07:52:49;99759.03;;;4.25;46.12
74893;BME280;63446;56.272;43.922;2023-02-28T07:55:15;99751.06;;;4.36;46.14
74893;BME280;63446;56.272;43.922;2023-02-28T07:57:42;99743.09;;;4.70;45.90
74893;BME280;63446;56.272;43.922;2023-02-28T08:00:11;99742.34;;;4.97;45.73
74893;BME280;63446;56.272;43.922;2023-02-28T08:02:40;99746.44;;;5.14;45.59
74893;BME280;63446;56.272;43.922;2023-02-28T08:05:06;99745.94;;;5.18;45.71
74893;BME280;63446;56.272;43.922;2023-02-28T08:07:32;99735.44;;;5.12;45.66
74893;BME280;63446;56.272;43.922;2023-02-28T08:09:58;99731.44;;;5.05;45.72
74893;BME280;63446;56.272;43.922;2023-02-28T08:12:25;99759.63;;;4.98;45.64
74893;BME280;63446;56.272;43.922;2023-02-28T08:14:52;99741.44;;;4.86;45.78
74893;BME280;63446;56.272;43.922;2023-02-28T08:17:18;99738.47;;;4.77;45.97
74893;BME280;63446;56.272;43.922;2023-02-28T08:19:46;99739.69;;;4.70;45.99
74893;BME280;63446;56.272;43.922;2023-02-28T08:22:12;99748.78;;;4.62;46.19
74893;BME280;63446;56.272;43.922;2023-02-28T08:24:41;99762.81;;;4.56;46.21
74893;BME280;63446;56.272;43.922;2023-02-28T08:27:08;99754.44;;;4.54;46.26
74893;BME280;63446;56.272;43.922;2023-02-28T08:29:37;99751.50;;;4.50;46.24
74893;BME280;63446;56.272;43.922;2023-02-28T08:32:04;99730.56;;;4.50;46.29
74893;BME280;63446;56.272;43.922;2023-02-28T08:34:30;99737.63;;;4.50;46.47
74893;BME280;63446;56.272;43.922;2023-02-28T08:36:56;99735.56;;;4.52;46.47
74893;BME280;63446;56.272;43.922;2023-02-28T08:39:22;99725.66;;;4.54;46.58
74893;BME280;63446;56.272;43.922;2023-02-28T08:41:48;99740.63;;;4.58;46.61
74893;BME280;63446;56.272;43.922;2023-02-28T08:44:14;99723.13;;;4.64;46.59
74893;BME280;63446;56.272;43.922;2023-02-28T08:46:40;99722.91;;;4.65;46.44
74893;BME280;63446;56.272;43.922;2023-02-28T08:49:06;99708.47;;;4.63;46.54
74893;BME280;63446;56.272;43.922;2023-02-28T08:51:32;99691.06;;;4.52;46.63
74893;BME280;63446;56.272;43.922;2023-02-28T08:54:00;99708.34;;;4.53;46.69
74893;BME280;63446;56.272;43.922;2023-02-28T08:56:27;99699.88;;;4.46;46.71
74893;BME280;63446;56.272;43.922;2023-02-28T08:58:55;99703.50;;;4.39;46.85
74893;BME280;63446;56.272;43.922;2023-02-28T09:01:26;99707.84;;;4.34;46.93
74893;BME280;63446;56.272;43.922;2023-02-28T09:03:54;99702.31;;;4.30;47.09
74893;BME280;63446;56.272;43.922;2023-02-28T09:06:22;99710.41;;;4.29;47.19
74893;BME280;63446;56.272;43.922;2023-02-28T09:08:49;99706.47;;;4.26;47.18
74893;BME280;63446;56.272;43.922;2023-02-28T09:11:15;99693.63;;;4.25;47.21
74893;BME280;63446;56.272;43.922;2023-02-28T09:13:42;99687.31;;;4.21;47.28
74893;BME280;63446;56.272;43.922;2023-02-28T09:16:11;99688.66;;;4.23;47.51
74893;BME280;63446;56.272;43.922;2023-02-28T09:18:37;99699.91;;;4.24;47.45
74893;BME280;63446;56.272;43.922;2023-02-28T09:21:05;99705.34;;;4.22;47.67
74893;BME280;63446;56.272;43.922;2023-02-28T09:23:31;99696.66;;;4.16;47.64
74893;BME280;63446;56.272;43.922;2023-02-28T09:25:57;99698.97;;;4.13;47.81
74893;BME280;63446;56.272;43.922;2023-02-28T09:28:23;99685.03;;;4.07;47.80
74893;BME280;63446;56.272;43.922;2023-02-28T09:30:53;99690.19;;;4.02;47.83
74893;BME280;63446;56.272;43.922;2023-02-28T09:33:20;99687.22;;;3.94;47.97
74893;BME280;63446;56.272;43.922;2023-02-28T09:35:48;99684.53;;;3.88;48.32
74893;BME280;63446;56.272;43.922;2023-02-28T09:38:14;99688.44;;;3.86;48.25
74893;BME280;63446;56.272;43.922;2023-02-28T09:40:58;99686.75;;;3.80;48.32
74893;BME280;63446;56.272;43.922;2023-02-28T09:43:30;99685.19;;;3.79;48.49
74893;BME280;63446;56.272;43.922;2023-02-28T09:48:35;99662.22;;;3.64;48.58
74893;BME280;63446;56.272;43.922;2023-02-28T09:51:15;99672.06;;;3.57;48.84
74893;BME280;63446;56.272;43.922;2023-02-28T09:53:49;99659.88;;;3.46;49.01
74893;BME280;63446;56.272;43.922;2023-02-28T09:56:20;99662.66;;;3.39;49.15
74893;BME280;63446;56.272;43.922;2023-02-28T09:58:56;99675.88;;;3.32;49.30
74893;BME280;63446;56.272;43.922;2023-02-28T10:01:39;99677.53;;;3.22;49.52
74893;BME280;63446;56.272;43.922;2023-02-28T10:07:25;99662.06;;;3.03;49.94
74893;BME280;63446;56.272;43.922;2023-02-28T10:09:57;99667.47;;;2.97;50.13
74893;BME280;63446;56.272;43.922;2023-02-28T10:12:27;99662.63;;;2.88;50.46
74893;BME280;63446;56.272;43.922;2023-02-28T10:14:56;99670.34;;;2.83;50.68
74893;BME280;63446;56.272;43.922;2023-02-28T10:17:36;99661.09;;;2.76;51.03
74893;BME280;63446;56.272;43.922;2023-02-28T10:20:07;99662.25;;;2.68;51.22
74893;BME280;63446;56.272;43.922;2023-02-28T10:25:27;99649.09;;;2.46;51.84
74893;BME280;63446;56.272;43.922;2023-02-28T10:27:55;99646.03;;;2.37;52.22
74893;BME280;63446;56.272;43.922;2023-02-28T10:30:24;99645.59;;;2.29;52.31
74893;BME280;63446;56.272;43.922;2023-02-28T10:32:52;99639.97;;;2.20;52.76
74893;BME280;63446;56.272;43.922;2023-02-28T10:35:22;99630.00;;;2.17;53.01
74893;BME280;63446;56.272;43.922;2023-02-28T10:37:59;99632.53;;;2.12;53.13
74893;BME280;63446;56.272;43.922;2023-02-28T10:40:31;99629.56;;;2.08;53.11
74893;BME280;63446;56.272;43.922;2023-02-28T10:45:28;99617.53;;;2.07;53.38
74893;BME280;63446;56.272;43.922;2023-02-28T10:47:58;99623.66;;;2.13;53.43
74893;BME280;63446;56.272;43.922;2023-02-28T10:55:37;99609.47;;;2.49;53.49
74893;BME280;63446;56.272;43.922;2023-02-28T10:58:18;99604.13;;;2.56;53.57
74893;BME280;63446;56.272;43.922;2023-02-28T11:00:45;99577.97;;;2.51;53.76
74893;BME280;63446;56.272;43.922;2023-02-28T11:03:29;99586.66;;;2.56;53.84
74893;BME280;63446;56.272;43.922;2023-02-28T11:05:57;99580.56;;;2.51;53.92
74893;BME280;63446;56.272;43.922;2023-02-28T11:08:23;99581.16;;;2.41;54.24
74893;BME280;63446;56.272;43.922;2023-02-28T11:11:03;99579.72;;;2.33;54.54
74893;BME280;63446;56.272;43.922;2023-02-28T11:13:35;99569.69;;;2.25;54.71
74893;BME280;63446;56.272;43.922;2023-02-28T11:16:06;99570.59;;;2.19;54.88
74893;BME280;63446;56.272;43.922;2023-02-28T11:18:40;99573.78;;;2.21;55.21
74893;BME280;63446;56.272;43.922;2023-02-28T11:21:08;99572.19;;;2.20;55.43
74893;BME280;63446;56.272;43.922;2023-02-28T11:23:40;99573.19;;;2.19;55.80
74893;BME280;63446;56.272;43.922;2023-02-28T11:26:06;99582.06;;;2.18;55.88
74893;BME280;63446;56.272;43.922;2023-02-28T11:28:37;99575.59;;;2.20;56.26
74893;BME280;63446;56.272;43.922;2023-02-28T11:33:53;99574.34;;;2.23;56.50
74893;BME280;63446;56.272;43.922;2023-02-28T11:36:24;99575.91;;;2.24;56.90
74893;BME280;63446;56.272;43.922;2023-02-28T11:38:59;99574.19;;;2.30;57.14
74893;BME280;63446;56.272;43.922;2023-02-28T11:42:16;99573.97;;;2.31;57.41
74893;BME280;63446;56.272;43.922;2023-02-28T11:44:53;99568.97;;;2.30;57.43
74893;BME280;63446;56.272;43.922;2023-02-28T11:47:38;99563.22;;;2.28;57.58
74893;BME280;63446;56.272;43.922;2023-02-28T11:53:00;99567.97;;;2.19;57.70
74893;BME280;63446;56.272;43.922;2023-02-28T11:55:42;99569.38;;;2.10;57.85
74893;BME280;63446;56.272;43.922;2023-02-28T11:58:28;99565.34;;;2.02;58.29
74893;BME280;63446;56.272;43.922;2023-02-28T12:01:27;99558.13;;;1.92;58.37
74893;BME280;63446;56.272;43.922;2023-02-28T12:12:13;99540.50;;;1.71;59.11
74893;BME280;63446;56.272;43.922;2023-02-28T12:22:57;99530.34;;;1.58;60.64
74893;BME280;63446;56.272;43.922;2023-02-28T12:28:27;99527.25;;;1.61;60.51
74893;BME280;63446;56.272;43.922;2023-02-28T12:31:06;99524.19;;;1.64;60.82
74893;BME280;63446;56.272;43.922;2023-02-28T12:33:40;99511.75;;;1.66;60.91
74893;BME280;63446;56.272;43.922;2023-02-28T12:36:14;99516.19;;;1.65;61.12
74893;BME280;63446;56.272;43.922;2023-02-28T12:38:48;99504.94;;;1.65;61.20
74893;BME280;63446;56.272;43.922;2023-02-28T12:41:19;99502.34;;;1.65;61.39
74893;BME280;63446;56.272;43.922;2023-02-28T12:43:52;99485.72;;;1.66;61.37
74893;BME280;63446;56.272;43.922;2023-02-28T12:46:36;99482.31;;;1.65;61.58
74893;BME280;63446;56.272;43.922;2023-02-28T12:49:17;99480.50;;;1.66;61.41
74893;BME280;63446;56.272;43.922;2023-02-28T12:51:48;99464.31;;;1.64;61.48
74893;BME280;63446;56.272;43.922;2023-02-28T12:54:25;99473.94;;;1.63;61.35
74893;BME280;63446;56.272;43.922;2023-02-28T12:57:09;99455.28;;;1.55;61.46
74893;BME280;63446;56.272;43.922;2023-02-28T12:59:40;99457.97;;;1.60;61.55
74893;BME280;63446;56.272;43.922;2023-02-28T13:10:45;99467.50;;;1.54;61.90
74893;BME280;63446;56.272;43.922;2023-02-28T13:13:21;99460.38;;;1.50;62.07
74893;BME280;63446;56.272;43.922;2023-02-28T13:15:59;99461.06;;;1.45;62.40
74893;BME280;63446;56.272;43.922;2023-02-28T13:21:09;99464.03;;;1.37;62.94
74893;BME280;63446;56.272;43.922;2023-02-28T13:24:00;99456.34;;;1.30;63.16
74893;BME280;63446;56.272;43.922;2023-02-28T13:34:40;99461.13;;;1.10;64.09
74893;BME280;63446;56.272;43.922;2023-02-28T13:37:36;99447.00;;;1.06;64.41
74893;BME280;63446;56.272;43.922;2023-02-28T13:42:46;99457.53;;;0.99;64.53
74893;BME280;63446;56.272;43.922;2023-02-28T13:45:26;99448.81;;;0.93;64.64
74893;BME280;63446;56.272;43.922;2023-02-28T13:48:26;99442.72;;;0.88;64.88
74893;BME280;63446;56.272;43.922;2023-02-28T13:50:54;99443.97;;;0.85;65.03
74893;BME280;63446;56.272;43.922;2023-02-28T13:53:41;99441.59;;;0.84;65.28
74893;BME280;63446;56.272;43.922;2023-02-28T13:57:05;99436.03;;;0.80;65.44
74893;BME280;63446;56.272;43.922;2023-02-28T13:59:55;99437.31;;;0.78;65.42
74893;BME280;63446;56.272;43.922;2023-02-28T14:05:15;99429.59;;;0.71;65.65
74893;BME280;63446;56.272;43.922;2023-02-28T14:07:52;99431.09;;;0.67;65.73
74893;BME280;63446;56.272;43.922;2023-02-28T14:10:34;99430.41;;;0.60;65.78
74893;BME280;63446;56.272;43.922;2023-02-28T14:18:23;99418.06;;;0.55;66.18
74893;BME280;63446;56.272;43.922;2023-02-28T14:20:54;99416.84;;;0.58;66.26
74893;BME280;63446;56.272;43.922;2023-02-28T14:33:00;99418.19;;;0.48;66.48
74893;BME280;63446;56.272;43.922;2023-02-28T14:37:46;99405.06;;;0.43;66.80
74893;BME280;63446;56.272;43.922;2023-02-28T14:40:32;99405.06;;;0.43;66.90
74893;BME280;63446;56.272;43.922;2023-02-28T14:43:04;99400.56;;;0.39;67.06
74893;BME280;63446;56.272;43.922;2023-02-28T14:45:32;99404.94;;;0.38;67.04
74893;BME280;63446;56.272;43.922;2023-02-28T14:48:01;99400.56;;;0.39;67.12
74893;BME280;63446;56.272;43.922;2023-02-28T14:50:31;99392.19;;;0.37;67.26
74893;BME280;63446;56.272;43.922;2023-02-28T14:52:58;99399.19;;;0.36;67.27
74893;BME280;63446;56.272;43.922;2023-02-28T14:55:28;99394.78;;;0.37;67.31
74893;BME280;63446;56.272;43.922;2023-02-28T14:58:01;99390.38;;;0.37;67.50
74893;BME280;63446;56.272;43.922;2023-02-28T15:00:35;99394.78;;;0.37;67.58
74893;BME280;63446;56.272;43.922;2023-02-28T15:03:31;99395.81;;;0.36;67.84
74893;BME280;63446;56.272;43.922;2023-02-28T15:06:01;99391.41;;;0.36;67.77
74893;BME280;63446;56.272;43.922;2023-02-28T15:08:29;99394.78;;;0.37;67.85
74893;BME280;63446;56.272;43.922;2023-02-28T15:11:13;99386.19;;;0.36;68.08
74893;BME280;63446;56.272;43.922;2023-02-28T15:13:44;99382.56;;;0.37;68.01
74893;BME280;63446;56.272;43.922;2023-02-28T15:16:15;99386.75;;;0.38;67.94
74893;BME280;63446;56.272;43.922;2023-02-28T15:21:56;99391.94;;;0.38;68.07